sensor_id;sensor_type;location;lat;lon;timestamp;temperature;humidity
68235;DHT22;55052;52.056;5.296;2022-07-29T00:00:57;18.80;53.40
68235;DHT22;55052;52.056;5.296;2022-07-29T00:03:24;18.80;53.50
68235;DHT22;55052;52.056;5.296;2022-07-29T00:05:51;18.80;53.60
68235;DHT22;55052;52.056;5.296;2022-07-29T00:08:19;18.80;53.70
68235;DHT22;55052;52.056;5.296;2022-07-29T00:10:46;18.70;53.80
68235;DHT22;55052;52.056;5.296;2022-07-29T00:13:13;18.70;53.80
68235;DHT22;55052;52.056;5.296;2022-07-29T00:15:40;18.70;54.00
68235;DHT22;55052;52.056;5.296;2022-07-29T00:18:07;18.60;54.20
68235;DHT22;55052;52.056;5.296;2022-07-29T00:20:34;18.60;54.20
68235;DHT22;55052;52.056;5.296;2022-07-29T00:23:00;18.60;54.30
68235;DHT22;55052;52.056;5.296;2022-07-29T00:25:27;18.50;54.20
68235;DHT22;55052;52.056;5.296;2022-07-29T00:27:54;18.50;54.30
68235;DHT22;55052;52.056;5.296;2022-07-29T00:30:20;18.50;54.40
68235;DHT22;55052;52.056;5.296;2022-07-29T00:32:47;18.50;54.70
68235;DHT22;55052;52.056;5.296;2022-07-29T00:35:14;18.40;54.70
68235;DHT22;55052;52.056;5.296;2022-07-29T00:38:01;18.40;54.80
68235;DHT22;55052;52.056;5.296;2022-07-29T00:40:28;18.30;54.90
68235;DHT22;55052;52.056;5.296;2022-07-29T00:42:54;18.30;55.10
68235;DHT22;55052;52.056;5.296;2022-07-29T00:45:21;18.30;55.10
68235;DHT22;55052;52.056;5.296;2022-07-29T00:47:51;18.20;55.30
68235;DHT22;55052;52.056;5.296;2022-07-29T00:50:18;18.20;55.30
68235;DHT22;55052;52.056;5.296;2022-07-29T00:52:45;18.20;55.50
68235;DHT22;55052;52.056;5.296;2022-07-29T00:55:14;18.20;55.50
68235;DHT22;55052;52.056;5.296;2022-07-29T00:57:42;18.20;55.70
68235;DHT22;55052;52.056;5.296;2022-07-29T01:00:12;18.10;55.80
68235;DHT22;55052;52.056;5.296;2022-07-29T01:02:39;18.10;55.80
68235;DHT22;55052;52.056;5.296;2022-07-29T01:05:06;18.10;55.90
68235;DHT22;55052;52.056;5.296;2022-07-29T01:07:35;18.10;56.00
68235;DHT22;55052;52.056;5.296;2022-07-29T01:10:07;18.10;56.20
68235;DHT22;55052;52.056;5.296;2022-07-29T01:12:36;18.00;56.20
68235;DHT22;55052;52.056;5.296;2022-07-29T01:15:06;18.00;56.20
68235;DHT22;55052;52.056;5.296;2022-07-29T01:17:47;18.00;56.30
68235;DHT22;55052;52.056;5.296;2022-07-29T01:25:48;17.90;56.70
68235;DHT22;55052;52.056;5.296;2022-07-29T01:31:31;17.90;57.00
68235;DHT22;55052;52.056;5.296;2022-07-29T01:34:08;17.80;56.90
68235;DHT22;55052;52.056;5.296;2022-07-29T01:36:43;17.80;56.90
68235;DHT22;55052;52.056;5.296;2022-07-29T01:39:23;17.80;57.00
68235;DHT22;55052;52.056;5.296;2022-07-29T01:44:39;17.80;57.30
68235;DHT22;55052;52.056;5.296;2022-07-29T01:47:15;17.70;57.20
68235;DHT22;55052;52.056;5.296;2022-07-29T01:49:52;17.70;57.30
68235;DHT22;55052;52.056;5.296;2022-07-29T01:52:31;17.70;57.50
68235;DHT22;55052;52.056;5.296;2022-07-29T01:55:00;17.70;57.40
68235;DHT22;55052;52.056;5.296;2022-07-29T01:57:32;17.60;57.40
68235;DHT22;55052;52.056;5.296;2022-07-29T02:00:00;17.60;57.50
68235;DHT22;55052;52.056;5.296;2022-07-29T02:02:28;17.60;57.50
68235;DHT22;55052;52.056;5.296;2022-07-29T02:04:57;17.60;57.40
68235;DHT22;55052;52.056;5.296;2022-07-29T02:07:25;17.60;57.40
68235;DHT22;55052;52.056;5.296;2022-07-29T02:09:53;17.60;57.50
68235;DHT22;55052;52.056;5.296;2022-07-29T02:12:22;17.60;57.50
68235;DHT22;55052;52.056;5.296;2022-07-29T02:14:53;17.60;57.50
68235;DHT22;55052;52.056;5.296;2022-07-29T02:17:22;17.60;57.60
68235;DHT22;55052;52.056;5.296;2022-07-29T02:19:50;17.60;57.70
68235;DHT22;55052;52.056;5.296;2022-07-29T02:22:18;17.60;57.60
68235;DHT22;55052;52.056;5.296;2022-07-29T02:24:47;17.60;57.70
68235;DHT22;55052;52.056;5.296;2022-07-29T02:27:17;17.60;57.70
68235;DHT22;55052;52.056;5.296;2022-07-29T02:29:46;17.60;57.80
68235;DHT22;55052;52.056;5.296;2022-07-29T02:32:14;17.50;57.90
68235;DHT22;55052;52.056;5.296;2022-07-29T02:34:43;17.50;57.80
68235;DHT22;55052;52.056;5.296;2022-07-29T02:37:11;17.50;57.80
68235;DHT22;55052;52.056;5.296;2022-07-29T02:39:41;17.60;57.90
68235;DHT22;55052;52.056;5.296;2022-07-29T02:42:12;17.50;58.00
68235;DHT22;55052;52.056;5.296;2022-07-29T02:44:40;17.50;58.00
68235;DHT22;55052;52.056;5.296;2022-07-29T02:47:18;17.50;58.10
68235;DHT22;55052;52.056;5.296;2022-07-29T02:52:34;17.50;58.10
68235;DHT22;55052;52.056;5.296;2022-07-29T02:55:19;17.50;58.10
68235;DHT22;55052;52.056;5.296;2022-07-29T02:57:59;17.50;58.30
68235;DHT22;55052;52.056;5.296;2022-07-29T03:00:28;17.50;58.30
68235;DHT22;55052;52.056;5.296;2022-07-29T03:02:59;17.40;58.30
68235;DHT22;55052;52.056;5.296;2022-07-29T03:05:26;17.40;58.30
68235;DHT22;55052;52.056;5.296;2022-07-29T03:08:00;17.40;58.30
68235;DHT22;55052;52.056;5.296;2022-07-29T03:10:28;17.40;59.30
68235;DHT22;55052;52.056;5.296;2022-07-29T03:12:56;17.40;58.30
68235;DHT22;55052;52.056;5.296;2022-07-29T03:15:25;17.40;58.30
68235;DHT22;55052;52.056;5.296;2022-07-29T03:17:53;17.40;58.30
68235;DHT22;55052;52.056;5.296;2022-07-29T03:20:20;17.40;58.30
68235;DHT22;55052;52.056;5.296;2022-07-29T03:22:47;17.40;58.30
68235;DHT22;55052;52.056;5.296;2022-07-29T03:25:15;17.40;58.40
68235;DHT22;55052;52.056;5.296;2022-07-29T03:27:43;17.40;58.40
68235;DHT22;55052;52.056;5.296;2022-07-29T03:30:11;17.30;58.40
68235;DHT22;55052;52.056;5.296;2022-07-29T03:32:44;17.30;58.50
68235;DHT22;55052;52.056;5.296;2022-07-29T03:35:11;17.30;58.60
68235;DHT22;55052;52.056;5.296;2022-07-29T03:37:38;17.30;58.60
68235;DHT22;55052;52.056;5.296;2022-07-29T03:40:07;17.30;58.70
68235;DHT22;55052;52.056;5.296;2022-07-29T03:42:35;17.30;58.70
68235;DHT22;55052;52.056;5.296;2022-07-29T03:45:06;17.30;58.90
68235;DHT22;55052;52.056;5.296;2022-07-29T03:47:35;17.30;58.80
68235;DHT22;55052;52.056;5.296;2022-07-29T03:50:17;17.20;58.80
68235;DHT22;55052;52.056;5.296;2022-07-29T03:52:46;17.20;58.80
68235;DHT22;55052;52.056;5.296;2022-07-29T03:55:14;17.20;58.80
68235;DHT22;55052;52.056;5.296;2022-07-29T03:57:41;17.20;58.90
68235;DHT22;55052;52.056;5.296;2022-07-29T04:00:09;17.20;58.90
68235;DHT22;55052;52.056;5.296;2022-07-29T04:02:37;17.20;58.80
68235;DHT22;55052;52.056;5.296;2022-07-29T04:05:05;17.20;58.80
68235;DHT22;55052;52.056;5.296;2022-07-29T04:07:37;17.20;58.80
68235;DHT22;55052;52.056;5.296;2022-07-29T04:10:04;17.20;58.90
68235;DHT22;55052;52.056;5.296;2022-07-29T04:12:32;17.20;59.00
68235;DHT22;55052;52.056;5.296;2022-07-29T04:14:58;17.20;58.90
68235;DHT22;55052;52.056;5.296;2022-07-29T04:17:25;17.20;58.90
68235;DHT22;55052;52.056;5.296;2022-07-29T04:19:52;17.20;58.80
68235;DHT22;55052;52.056;5.296;2022-07-29T04:22:18;17.20;58.80
68235;DHT22;55052;52.056;5.296;2022-07-29T04:24:45;17.20;58.80
68235;DHT22;55052;52.056;5.296;2022-07-29T04:27:12;17.20;58.80
68235;DHT22;55052;52.056;5.296;2022-07-29T04:29:39;17.20;58.90
68235;DHT22;55052;52.056;5.296;2022-07-29T04:32:23;17.20;58.80
68235;DHT22;55052;52.056;5.296;2022-07-29T04:34:50;17.20;58.80
68235;DHT22;55052;52.056;5.296;2022-07-29T04:37:17;17.20;58.90
68235;DHT22;55052;52.056;5.296;2022-07-29T04:39:44;17.20;58.90
68235;DHT22;55052;52.056;5.296;2022-07-29T04:42:11;17.20;58.90
68235;DHT22;55052;52.056;5.296;2022-07-29T04:44:38;17.20;58.90
68235;DHT22;55052;52.056;5.296;2022-07-29T04:47:09;17.20;58.90
68235;DHT22;55052;52.056;5.296;2022-07-29T04:49:38;17.20;58.90
68235;DHT22;55052;52.056;5.296;2022-07-29T04:52:06;17.20;58.90
68235;DHT22;55052;52.056;5.296;2022-07-29T04:54:33;17.20;58.90
68235;DHT22;55052;52.056;5.296;2022-07-29T04:56:59;17.20;59.00
68235;DHT22;55052;52.056;5.296;2022-07-29T04:59:26;17.20;59.00
68235;DHT22;55052;52.056;5.296;2022-07-29T05:01:53;17.20;58.90
68235;DHT22;55052;52.056;5.296;2022-07-29T05:04:20;17.20;58.90
68235;DHT22;55052;52.056;5.296;2022-07-29T05:06:47;17.30;58.90
68235;DHT22;55052;52.056;5.296;2022-07-29T05:09:14;17.30;58.90
68235;DHT22;55052;52.056;5.296;2022-07-29T05:11:41;17.30;58.90
68235;DHT22;55052;52.056;5.296;2022-07-29T05:14:08;17.30;58.90
68235;DHT22;55052;52.056;5.296;2022-07-29T05:16:34;17.30;58.90
68235;DHT22;55052;52.056;5.296;2022-07-29T05:19:01;17.30;58.90
68235;DHT22;55052;52.056;5.296;2022-07-29T05:21:28;17.30;58.90
68235;DHT22;55052;52.056;5.296;2022-07-29T05:23:55;17.40;58.90
68235;DHT22;55052;52.056;5.296;2022-07-29T05:26:21;17.40;59.10
68235;DHT22;55052;52.056;5.296;2022-07-29T05:28:48;17.40;59.10
68235;DHT22;55052;52.056;5.296;2022-07-29T05:31:15;17.40;59.00
68235;DHT22;55052;52.056;5.296;2022-07-29T05:33:42;17.50;59.00
68235;DHT22;55052;52.056;5.296;2022-07-29T05:36:09;17.50;58.90
68235;DHT22;55052;52.056;5.296;2022-07-29T05:38:36;17.50;58.90
68235;DHT22;55052;52.056;5.296;2022-07-29T05:41:04;17.60;58.80
68235;DHT22;55052;52.056;5.296;2022-07-29T05:43:31;17.60;58.90
68235;DHT22;55052;52.056;5.296;2022-07-29T05:45:58;17.60;58.90
68235;DHT22;55052;52.056;5.296;2022-07-29T05:48:25;17.70;58.80
68235;DHT22;55052;52.056;5.296;2022-07-29T05:50:52;17.70;58.80
68235;DHT22;55052;52.056;5.296;2022-07-29T05:53:19;17.80;59.80
68235;DHT22;55052;52.056;5.296;2022-07-29T05:55:49;17.80;58.70
68235;DHT22;55052;52.056;5.296;2022-07-29T05:58:16;17.80;58.80
68235;DHT22;55052;52.056;5.296;2022-07-29T06:00:43;17.80;58.70
68235;DHT22;55052;52.056;5.296;2022-07-29T06:03:11;17.80;58.60
68235;DHT22;55052;52.056;5.296;2022-07-29T06:05:37;17.80;58.60
68235;DHT22;55052;52.056;5.296;2022-07-29T06:08:04;17.80;58.50
68235;DHT22;55052;52.056;5.296;2022-07-29T06:10:35;17.80;58.50
68235;DHT22;55052;52.056;5.296;2022-07-29T06:13:02;17.90;58.60
68235;DHT22;55052;52.056;5.296;2022-07-29T06:15:28;17.90;58.70
68235;DHT22;55052;52.056;5.296;2022-07-29T06:17:55;17.90;58.80
68235;DHT22;55052;52.056;5.296;2022-07-29T06:20:25;18.00;58.80
68235;DHT22;55052;52.056;5.296;2022-07-29T06:22:53;18.00;58.70
68235;DHT22;55052;52.056;5.296;2022-07-29T06:25:20;18.00;58.70
68235;DHT22;55052;52.056;5.296;2022-07-29T06:27:46;18.10;58.70
68235;DHT22;55052;52.056;5.296;2022-07-29T06:30:13;18.10;58.60
68235;DHT22;55052;52.056;5.296;2022-07-29T06:32:40;18.10;58.60
68235;DHT22;55052;52.056;5.296;2022-07-29T06:35:09;18.10;58.60
68235;DHT22;55052;52.056;5.296;2022-07-29T06:37:56;18.20;59.70
68235;DHT22;55052;52.056;5.296;2022-07-29T06:40:25;18.20;58.70
68235;DHT22;55052;52.056;5.296;2022-07-29T06:43:11;18.20;58.60
68235;DHT22;55052;52.056;5.296;2022-07-29T06:45:38;18.30;58.60
68235;DHT22;55052;52.056;5.296;2022-07-29T06:48:08;18.30;58.70
68235;DHT22;55052;52.056;5.296;2022-07-29T06:50:35;18.20;58.60
68235;DHT22;55052;52.056;5.296;2022-07-29T06:53:02;18.30;58.70
68235;DHT22;55052;52.056;5.296;2022-07-29T06:55:29;18.30;58.70
68235;DHT22;55052;52.056;5.296;2022-07-29T06:57:56;18.40;58.80
68235;DHT22;55052;52.056;5.296;2022-07-29T07:00:23;18.40;58.80
68235;DHT22;55052;52.056;5.296;2022-07-29T07:02:49;18.50;58.60
68235;DHT22;55052;52.056;5.296;2022-07-29T07:05:16;18.50;58.60
68235;DHT22;55052;52.056;5.296;2022-07-29T07:07:43;18.60;58.60
68235;DHT22;55052;52.056;5.296;2022-07-29T07:10:10;18.60;58.40
68235;DHT22;55052;52.056;5.296;2022-07-29T07:12:36;18.70;58.30
68235;DHT22;55052;52.056;5.296;2022-07-29T07:15:03;18.80;58.30
68235;DHT22;55052;52.056;5.296;2022-07-29T07:17:30;18.90;58.30
68235;DHT22;55052;52.056;5.296;2022-07-29T07:19:57;18.90;58.00
68235;DHT22;55052;52.056;5.296;2022-07-29T07:22:24;19.00;58.00
68235;DHT22;55052;52.056;5.296;2022-07-29T07:24:51;19.00;57.70
68235;DHT22;55052;52.056;5.296;2022-07-29T07:27:18;19.10;57.90
68235;DHT22;55052;52.056;5.296;2022-07-29T07:29:44;19.20;57.80
68235;DHT22;55052;52.056;5.296;2022-07-29T07:32:11;19.30;57.80
68235;DHT22;55052;52.056;5.296;2022-07-29T07:34:39;19.40;57.80
68235;DHT22;55052;52.056;5.296;2022-07-29T07:37:06;19.50;57.60
68235;DHT22;55052;52.056;5.296;2022-07-29T07:39:33;19.50;57.50
68235;DHT22;55052;52.056;5.296;2022-07-29T07:41:59;19.60;57.30
68235;DHT22;55052;52.056;5.296;2022-07-29T07:44:27;19.70;57.20
68235;DHT22;55052;52.056;5.296;2022-07-29T07:46:53;19.70;57.10
68235;DHT22;55052;52.056;5.296;2022-07-29T07:49:20;19.80;57.00
68235;DHT22;55052;52.056;5.296;2022-07-29T07:51:47;19.90;56.90
68235;DHT22;55052;52.056;5.296;2022-07-29T07:54:16;19.90;56.60
68235;DHT22;55052;52.056;5.296;2022-07-29T07:56:46;20.00;56.40
68235;DHT22;55052;52.056;5.296;2022-07-29T07:59:18;20.00;56.20
68235;DHT22;55052;52.056;5.296;2022-07-29T08:01:45;20.00;56.20
68235;DHT22;55052;52.056;5.296;2022-07-29T08:04:21;20.00;56.10
68235;DHT22;55052;52.056;5.296;2022-07-29T08:06:54;20.10;56.10
68235;DHT22;55052;52.056;5.296;2022-07-29T08:09:22;20.10;56.20
68235;DHT22;55052;52.056;5.296;2022-07-29T08:11:57;20.20;56.00
68235;DHT22;55052;52.056;5.296;2022-07-29T08:14:25;20.20;56.00
68235;DHT22;55052;52.056;5.296;2022-07-29T08:16:52;20.20;55.90
68235;DHT22;55052;52.056;5.296;2022-07-29T08:19:19;20.30;55.80
68235;DHT22;55052;52.056;5.296;2022-07-29T08:21:46;20.40;55.90
68235;DHT22;55052;52.056;5.296;2022-07-29T08:24:12;20.50;55.60
68235;DHT22;55052;52.056;5.296;2022-07-29T08:26:58;20.60;55.40
68235;DHT22;55052;52.056;5.296;2022-07-29T08:29:24;20.60;55.10
68235;DHT22;55052;52.056;5.296;2022-07-29T08:31:51;20.70;54.90
68235;DHT22;55052;52.056;5.296;2022-07-29T08:34:18;20.80;55.00
68235;DHT22;55052;52.056;5.296;2022-07-29T08:36:53;20.80;54.90
68235;DHT22;55052;52.056;5.296;2022-07-29T08:39:19;20.90;54.90
68235;DHT22;55052;52.056;5.296;2022-07-29T08:41:46;21.00;54.90
68235;DHT22;55052;52.056;5.296;2022-07-29T08:44:23;21.10;54.60
68235;DHT22;55052;52.056;5.296;2022-07-29T08:46:56;21.10;54.30
68235;DHT22;55052;52.056;5.296;2022-07-29T08:49:23;21.20;54.10
68235;DHT22;55052;52.056;5.296;2022-07-29T08:51:50;21.20;53.80
68235;DHT22;55052;52.056;5.296;2022-07-29T08:54:18;21.30;53.50
68235;DHT22;55052;52.056;5.296;2022-07-29T08:56:48;21.30;53.60
68235;DHT22;55052;52.056;5.296;2022-07-29T08:59:19;21.40;53.60
68235;DHT22;55052;52.056;5.296;2022-07-29T09:01:48;21.50;53.60
68235;DHT22;55052;52.056;5.296;2022-07-29T09:04:15;21.60;53.20
68235;DHT22;55052;52.056;5.296;2022-07-29T09:06:45;21.70;53.10
68235;DHT22;55052;52.056;5.296;2022-07-29T09:09:13;21.80;52.20
68235;DHT22;55052;52.056;5.296;2022-07-29T09:11:41;21.80;52.20
68235;DHT22;55052;52.056;5.296;2022-07-29T09:14:08;21.90;51.80
68235;DHT22;55052;52.056;5.296;2022-07-29T09:16:48;22.00;51.70
68235;DHT22;55052;52.056;5.296;2022-07-29T09:19:33;22.10;51.20
68235;DHT22;55052;52.056;5.296;2022-07-29T09:22:05;22.20;51.10
68235;DHT22;55052;52.056;5.296;2022-07-29T09:24:42;22.20;51.20
68235;DHT22;55052;52.056;5.296;2022-07-29T09:27:17;22.30;51.00
68235;DHT22;55052;52.056;5.296;2022-07-29T09:29:46;22.40;50.70
68235;DHT22;55052;52.056;5.296;2022-07-29T09:32:13;22.50;50.40
68235;DHT22;55052;52.056;5.296;2022-07-29T09:34:40;22.60;50.20
68235;DHT22;55052;52.056;5.296;2022-07-29T09:37:07;22.60;50.00
68235;DHT22;55052;52.056;5.296;2022-07-29T09:39:38;22.70;50.10
68235;DHT22;55052;52.056;5.296;2022-07-29T09:42:12;22.80;49.60
68235;DHT22;55052;52.056;5.296;2022-07-29T09:44:47;22.80;49.60
68235;DHT22;55052;52.056;5.296;2022-07-29T09:47:16;22.90;49.00
68235;DHT22;55052;52.056;5.296;2022-07-29T09:49:55;23.00;48.80
68235;DHT22;55052;52.056;5.296;2022-07-29T09:52:28;23.00;48.30
68235;DHT22;55052;52.056;5.296;2022-07-29T09:55:05;23.10;48.50
68235;DHT22;55052;52.056;5.296;2022-07-29T09:57:32;23.10;48.00
68235;DHT22;55052;52.056;5.296;2022-07-29T10:00:05;23.10;48.30
68235;DHT22;55052;52.056;5.296;2022-07-29T10:02:36;23.20;48.20
68235;DHT22;55052;52.056;5.296;2022-07-29T10:05:09;23.30;48.30
68235;DHT22;55052;52.056;5.296;2022-07-29T10:07:51;23.40;48.10
68235;DHT22;55052;52.056;5.296;2022-07-29T10:10:24;23.50;48.00
68235;DHT22;55052;52.056;5.296;2022-07-29T10:12:55;23.60;47.70
68235;DHT22;55052;52.056;5.296;2022-07-29T10:15:29;23.70;47.30
68235;DHT22;55052;52.056;5.296;2022-07-29T10:17:58;23.80;47.80
68235;DHT22;55052;52.056;5.296;2022-07-29T10:20:27;23.90;47.60
68235;DHT22;55052;52.056;5.296;2022-07-29T10:22:54;24.00;47.30
68235;DHT22;55052;52.056;5.296;2022-07-29T10:25:23;24.10;46.90
68235;DHT22;55052;52.056;5.296;2022-07-29T10:27:50;24.20;46.40
68235;DHT22;55052;52.056;5.296;2022-07-29T10:30:19;24.30;46.00
68235;DHT22;55052;52.056;5.296;2022-07-29T10:36:09;24.50;44.80
68235;DHT22;55052;52.056;5.296;2022-07-29T10:38:52;24.60;45.10
68235;DHT22;55052;52.056;5.296;2022-07-29T10:44:21;24.90;45.00
68235;DHT22;55052;52.056;5.296;2022-07-29T10:46:50;24.90;44.80
68235;DHT22;55052;52.056;5.296;2022-07-29T10:49:23;25.00;44.80
68235;DHT22;55052;52.056;5.296;2022-07-29T10:52:05;25.20;45.20
68235;DHT22;55052;52.056;5.296;2022-07-29T10:54:46;25.20;44.70
68235;DHT22;55052;52.056;5.296;2022-07-29T10:57:22;25.30;43.90
68235;DHT22;55052;52.056;5.296;2022-07-29T11:02:44;25.40;44.40
68235;DHT22;55052;52.056;5.296;2022-07-29T11:05:15;25.40;43.80
68235;DHT22;55052;52.056;5.296;2022-07-29T11:10:49;25.40;43.10
68235;DHT22;55052;52.056;5.296;2022-07-29T11:16:12;25.30;43.30
68235;DHT22;55052;52.056;5.296;2022-07-29T11:21:44;25.40;43.40
68235;DHT22;55052;52.056;5.296;2022-07-29T11:24:28;25.40;43.90
68235;DHT22;55052;52.056;5.296;2022-07-29T11:27:10;25.50;43.70
68235;DHT22;55052;52.056;5.296;2022-07-29T11:32:17;25.70;43.30
68235;DHT22;55052;52.056;5.296;2022-07-29T11:35:11;25.80;44.70
68235;DHT22;55052;52.056;5.296;2022-07-29T11:37:44;25.80;43.10
68235;DHT22;55052;52.056;5.296;2022-07-29T11:40:21;25.90;43.10
68235;DHT22;55052;52.056;5.296;2022-07-29T11:42:48;26.00;42.70
68235;DHT22;55052;52.056;5.296;2022-07-29T11:45:46;26.00;42.80
68235;DHT22;55052;52.056;5.296;2022-07-29T11:48:17;26.10;42.20
68235;DHT22;55052;52.056;5.296;2022-07-29T11:50:56;26.10;42.30
68235;DHT22;55052;52.056;5.296;2022-07-29T11:53:24;26.20;42.70
68235;DHT22;55052;52.056;5.296;2022-07-29T11:55:55;26.20;42.10
68235;DHT22;55052;52.056;5.296;2022-07-29T11:58:24;26.40;41.60
68235;DHT22;55052;52.056;5.296;2022-07-29T12:00:52;26.40;41.70
68235;DHT22;55052;52.056;5.296;2022-07-29T12:03:26;26.50;40.90
68235;DHT22;55052;52.056;5.296;2022-07-29T12:06:10;26.50;40.30
68235;DHT22;55052;52.056;5.296;2022-07-29T12:08:42;26.60;41.00
68235;DHT22;55052;52.056;5.296;2022-07-29T12:11:19;26.70;41.20
68235;DHT22;55052;52.056;5.296;2022-07-29T12:13:50;26.70;41.60
68235;DHT22;55052;52.056;5.296;2022-07-29T12:16:18;26.80;41.90
68235;DHT22;55052;52.056;5.296;2022-07-29T12:18:59;26.90;42.20
68235;DHT22;55052;52.056;5.296;2022-07-29T12:21:29;27.00;41.90
68235;DHT22;55052;52.056;5.296;2022-07-29T12:23:57;27.00;41.60
68235;DHT22;55052;52.056;5.296;2022-07-29T12:26:32;27.00;41.70
68235;DHT22;55052;52.056;5.296;2022-07-29T12:29:00;27.00;41.70
68235;DHT22;55052;52.056;5.296;2022-07-29T12:31:28;27.00;41.30
68235;DHT22;55052;52.056;5.296;2022-07-29T12:34:15;26.90;41.20
68235;DHT22;55052;52.056;5.296;2022-07-29T12:36:42;26.90;41.60
68235;DHT22;55052;52.056;5.296;2022-07-29T12:39:10;26.90;41.50
68235;DHT22;55052;52.056;5.296;2022-07-29T12:41:38;27.00;41.50
68235;DHT22;55052;52.056;5.296;2022-07-29T12:44:05;27.00;41.60
68235;DHT22;55052;52.056;5.296;2022-07-29T12:46:32;27.00;41.60
68235;DHT22;55052;52.056;5.296;2022-07-29T12:48:59;27.10;41.90
68235;DHT22;55052;52.056;5.296;2022-07-29T12:51:30;27.20;41.70
68235;DHT22;55052;52.056;5.296;2022-07-29T12:54:12;27.30;41.40
68235;DHT22;55052;52.056;5.296;2022-07-29T12:56:44;27.40;40.30
68235;DHT22;55052;52.056;5.296;2022-07-29T12:59:21;27.50;40.40
68235;DHT22;55052;52.056;5.296;2022-07-29T13:01:51;27.50;39.60
68235;DHT22;55052;52.056;5.296;2022-07-29T13:04:29;27.50;40.30
68235;DHT22;55052;52.056;5.296;2022-07-29T13:07:07;27.60;40.10
68235;DHT22;55052;52.056;5.296;2022-07-29T13:09:43;27.70;40.70
68235;DHT22;55052;52.056;5.296;2022-07-29T13:12:13;27.80;40.00
68235;DHT22;55052;52.056;5.296;2022-07-29T13:14:42;27.90;39.50
68235;DHT22;55052;52.056;5.296;2022-07-29T13:17:17;27.90;39.80
68235;DHT22;55052;52.056;5.296;2022-07-29T13:19:49;28.00;39.40
68235;DHT22;55052;52.056;5.296;2022-07-29T13:22:21;28.10;39.90
68235;DHT22;55052;52.056;5.296;2022-07-29T13:27:22;28.20;39.80
68235;DHT22;55052;52.056;5.296;2022-07-29T13:29:49;28.20;39.80
68235;DHT22;55052;52.056;5.296;2022-07-29T13:32:20;28.20;39.70
68235;DHT22;55052;52.056;5.296;2022-07-29T13:34:59;28.30;39.90
68235;DHT22;55052;52.056;5.296;2022-07-29T13:37:27;28.30;39.60
68235;DHT22;55052;52.056;5.296;2022-07-29T13:39:56;28.30;39.80
68235;DHT22;55052;52.056;5.296;2022-07-29T13:42:23;28.30;39.80
68235;DHT22;55052;52.056;5.296;2022-07-29T13:44:51;28.50;40.50
68235;DHT22;55052;52.056;5.296;2022-07-29T13:47:21;28.90;40.10
68235;DHT22;55052;52.056;5.296;2022-07-29T13:49:58;29.10;39.40
68235;DHT22;55052;52.056;5.296;2022-07-29T13:52:25;29.40;38.70
68235;DHT22;55052;52.056;5.296;2022-07-29T13:54:52;29.40;39.30
68235;DHT22;55052;52.056;5.296;2022-07-29T13:57:19;29.50;39.60
68235;DHT22;55052;52.056;5.296;2022-07-29T13:59:45;29.50;39.40
68235;DHT22;55052;52.056;5.296;2022-07-29T14:02:19;29.50;39.10
68235;DHT22;55052;52.056;5.296;2022-07-29T14:04:46;29.40;38.80
68235;DHT22;55052;52.056;5.296;2022-07-29T14:07:13;29.30;39.00
68235;DHT22;55052;52.056;5.296;2022-07-29T14:09:42;29.40;39.40
68235;DHT22;55052;52.056;5.296;2022-07-29T14:12:09;29.60;39.40
68235;DHT22;55052;52.056;5.296;2022-07-29T14:14:36;29.80;39.40
68235;DHT22;55052;52.056;5.296;2022-07-29T14:17:04;30.10;39.20
68235;DHT22;55052;52.056;5.296;2022-07-29T14:19:33;30.30;38.80
68235;DHT22;55052;52.056;5.296;2022-07-29T14:22:05;30.50;38.50
68235;DHT22;55052;52.056;5.296;2022-07-29T14:24:34;30.60;38.10
68235;DHT22;55052;52.056;5.296;2022-07-29T14:27:03;30.70;38.30
68235;DHT22;55052;52.056;5.296;2022-07-29T14:29:31;30.70;37.80
68235;DHT22;55052;52.056;5.296;2022-07-29T14:32:07;30.60;37.10
68235;DHT22;55052;52.056;5.296;2022-07-29T14:34:35;30.50;37.00
68235;DHT22;55052;52.056;5.296;2022-07-29T14:37:02;30.40;36.90
68235;DHT22;55052;52.056;5.296;2022-07-29T14:39:29;30.20;36.80
68235;DHT22;55052;52.056;5.296;2022-07-29T14:41:57;30.00;36.50
68235;DHT22;55052;52.056;5.296;2022-07-29T14:44:26;29.90;36.50
68235;DHT22;55052;52.056;5.296;2022-07-29T14:46:58;29.70;36.70
68235;DHT22;55052;52.056;5.296;2022-07-29T14:49:28;29.60;36.70
68235;DHT22;55052;52.056;5.296;2022-07-29T14:51:55;29.40;36.70
68235;DHT22;55052;52.056;5.296;2022-07-29T14:54:22;29.20;36.80
68235;DHT22;55052;52.056;5.296;2022-07-29T14:56:49;29.10;36.90
68235;DHT22;55052;52.056;5.296;2022-07-29T14:59:17;29.00;36.90
68235;DHT22;55052;52.056;5.296;2022-07-29T15:01:44;28.80;37.00
68235;DHT22;55052;52.056;5.296;2022-07-29T15:04:10;28.70;36.80
68235;DHT22;55052;52.056;5.296;2022-07-29T15:06:37;28.50;36.70
68235;DHT22;55052;52.056;5.296;2022-07-29T15:09:04;28.40;36.60
68235;DHT22;55052;52.056;5.296;2022-07-29T15:11:31;28.40;36.50
68235;DHT22;55052;52.056;5.296;2022-07-29T15:14:04;28.20;36.30
68235;DHT22;55052;52.056;5.296;2022-07-29T15:16:32;28.10;36.40
68235;DHT22;55052;52.056;5.296;2022-07-29T15:18:59;28.00;36.20
68235;DHT22;55052;52.056;5.296;2022-07-29T15:21:26;27.90;36.50
68235;DHT22;55052;52.056;5.296;2022-07-29T15:23:53;27.80;36.60
68235;DHT22;55052;52.056;5.296;2022-07-29T15:26:20;27.70;36.70
68235;DHT22;55052;52.056;5.296;2022-07-29T15:28:47;27.60;36.60
68235;DHT22;55052;52.056;5.296;2022-07-29T15:31:14;27.60;36.80
68235;DHT22;55052;52.056;5.296;2022-07-29T15:33:41;27.50;36.60
68235;DHT22;55052;52.056;5.296;2022-07-29T15:36:08;27.50;36.30
68235;DHT22;55052;52.056;5.296;2022-07-29T15:38:35;27.40;36.20
68235;DHT22;55052;52.056;5.296;2022-07-29T15:41:08;27.30;36.30
68235;DHT22;55052;52.056;5.296;2022-07-29T15:43:34;27.30;36.30
68235;DHT22;55052;52.056;5.296;2022-07-29T15:46:01;27.20;36.40
68235;DHT22;55052;52.056;5.296;2022-07-29T15:48:47;27.10;36.30
68235;DHT22;55052;52.056;5.296;2022-07-29T15:51:14;27.10;36.60
68235;DHT22;55052;52.056;5.296;2022-07-29T15:53:40;27.10;36.80
68235;DHT22;55052;52.056;5.296;2022-07-29T15:56:07;27.10;36.70
68235;DHT22;55052;52.056;5.296;2022-07-29T15:58:34;27.00;36.60
68235;DHT22;55052;52.056;5.296;2022-07-29T16:01:01;27.00;36.90
68235;DHT22;55052;52.056;5.296;2022-07-29T16:03:29;27.00;37.00
68235;DHT22;55052;52.056;5.296;2022-07-29T16:05:55;27.00;36.70
68235;DHT22;55052;52.056;5.296;2022-07-29T16:08:22;26.90;36.80
68235;DHT22;55052;52.056;5.296;2022-07-29T16:10:49;26.90;36.70
68235;DHT22;55052;52.056;5.296;2022-07-29T16:13:16;26.90;36.80
68235;DHT22;55052;52.056;5.296;2022-07-29T16:15:46;26.90;36.80
68235;DHT22;55052;52.056;5.296;2022-07-29T16:18:27;26.90;36.90
68235;DHT22;55052;52.056;5.296;2022-07-29T16:20:56;26.80;36.80
68235;DHT22;55052;52.056;5.296;2022-07-29T16:23:23;26.80;36.80